map of AGS home
AGS - Airport
Location
City:  Augusta, Georgia, United States
Name:Augusta Regional at Bush Field
ICAO:KAGS
IATA:AGS
FAA LID:AGS

Details
Type:Airport (Part 139 Class I)
Use:Public/Civil
Latitude:3322'12"N (33.369944)
Longitude:8157'52"W (-81.964499)
Datum:WGS 1984
Elevation:145 ft (44 m)
Variation:6.73W (WMM2015v2 magnetic declination)
-0.05 annual change
Runways:2
Longest:8001 × 150 ft (2439 × 45.5 m), paved

Time
Time Zone:UTC-5 (DST-4)
Local Time:

Weather
METAR:KAGS 041353Z 07003KT 9SM CLR 08/07 A3011 RMK AO2 SLP196 T00830067
TAF:KAGS 040536Z 0406/0506 VRB04KT P6SM SCT200
TEMPO 0407/0411 2SM BR SCT003
FM041900 27005KT P6SM BKN150
FM050100 VRB03KT P6SM BKN100

Related Locations
Nearby:
Farthest:MQZ: 11461 mi / 18445 km
Margaret River [Margaret River Airport], WA, AU

Find:

   beyond  
but within

Other Information
Maps:
Delays:
NOTAMs:
Links:
Sources:

  
  • flag of United States
  • flag of Georgia
  

Airport Diagram

Airport diagram for AGS

Airport diagram PDF from FAA

Sectional Chart

Flight Planning
at skyvector.com

Satellite Image

Google Maps Satellite view

 

Copyright © 2004-2019 Karl L. Swartz. All rights reserved.
The Great Circle Mapper name and logo are trademarks of the Great Circle Mapper.
All other trademarks mentioned herein belong to their respective owners.
Please see credits for attibutions and further copyright information.

  Follow gcmap on Facebook Follow gcmap on Twitter GCmap on LinkedIn

hCard Microformat

Geo Microformat